Time;durP1;ratioP1;P1;durP2;ratioP2;P2;SDS_P1;SDS_P2;PMS_P1;PMS_P2;Temp;Humidity;BMP_temperature;BMP_pressure;BME280_temperature;BME280_humidity;BME280_pressure;Samples;Min_cycle;Max_cycle;Signal;HPM_P1;HPM_P2
2022/03/09 00:02:00;;;;;;;;;;;;;;;-0.93;69.07;101216.03;5057092;28;1317;-84
2022/03/09 00:04:26;;;;;;;;;;;;;;;-1.01;69.02;101213.44;5075055;28;1886;-83
2022/03/09 00:06:51;;;;;;;;;;;;;;;-1.01;69.52;101226.88;5057570;28;1251;-84
2022/03/09 00:09:16;;;;;;;;;;;;;;;-1.07;69.03;101230.31;5057836;28;1248;-85
2022/03/09 00:11:41;;;;;;;;;;;;;;;-1.09;69.50;101228.84;5057463;28;1318;-84
2022/03/09 00:14:07;;;;;;;;;;;;;;;-1.19;69.62;101239.84;5056778;28;1434;-83
2022/03/09 00:16:32;;;;;;;;;;;;;;;-1.24;69.78;101235.06;5057171;28;1765;-83
2022/03/09 00:18:57;;;;;;;;;;;;;;;-1.15;69.51;101233.13;5057140;28;1706;-83
2022/03/09 00:21:22;;;;;;;;;;;;;;;-1.17;69.57;101233.28;5071244;28;1577;-84
2022/03/09 00:23:47;;;;;;;;;;;;;;;-1.11;69.36;101238.97;5048152;28;1965;-83
2022/03/09 00:26:13;;;;;;;;;;;;;;;-1.13;69.79;101238.31;5057073;28;1200;-84
2022/03/09 00:28:38;;;;;;;;;;;;;;;-1.31;69.87;101246.72;5057341;28;1421;-84
2022/03/09 00:31:03;;;;;;;;;;;;;;;-1.29;70.03;101244.69;5057694;28;1284;-83
2022/03/09 00:33:29;;;;;;;;;;;;;;;-1.37;70.03;101242.94;5057088;28;1207;-84
2022/03/09 00:35:54;;;;;;;;;;;;;;;-1.43;70.13;101243.66;5057221;28;1286;-83
2022/03/09 00:38:19;;;;;;;;;;;;;;;-1.37;70.22;101242.09;5057613;28;1369;-83
2022/03/09 00:40:47;;;;;;;;;;;;;;;-1.36;70.32;101239.22;5060610;28;1634;-83
2022/03/09 00:43:13;;;;;;;;;;;;;;;-1.34;70.43;101228.28;5055319;28;1894;-84
2022/03/09 00:45:38;;;;;;;;;;;;;;;-1.46;70.38;101240.53;5058113;28;1329;-84
2022/03/09 00:48:03;;;;;;;;;;;;;;;-1.49;70.27;101238.19;5057439;28;1029;-82
2022/03/09 00:50:28;;;;;;;;;;;;;;;-1.56;70.53;101238.94;5075468;28;1107;-83
2022/03/09 00:52:53;;;;;;;;;;;;;;;-1.44;71.07;101241.16;5057228;28;1258;-83
2022/03/09 00:55:19;;;;;;;;;;;;;;;-1.26;70.64;101252.38;5057257;28;1115;-83
2022/03/09 00:57:44;;;;;;;;;;;;;;;-1.30;70.54;101243.03;5075075;28;1030;-82
2022/03/09 01:00:09;;;;;;;;;;;;;;;-1.27;70.54;101245.31;5050924;28;1573;-83
2022/03/09 01:02:41;;;;;;;;;;;;;;;-1.27;70.55;101251.53;5036853;28;1327;-83
2022/03/09 01:05:07;;;;;;;;;;;;;;;-1.47;70.63;101244.22;5055166;28;1902;-83
2022/03/09 01:07:32;;;;;;;;;;;;;;;-1.44;70.81;101244.66;5036831;28;1325;-83
2022/03/09 01:09:57;;;;;;;;;;;;;;;-1.51;70.55;101238.38;5036834;28;1012;-83
2022/03/09 01:12:22;;;;;;;;;;;;;;;-1.61;70.83;101243.16;5054385;28;1292;-84
2022/03/09 01:14:47;;;;;;;;;;;;;;;-1.73;71.06;101242.81;5054623;28;798;-84
2022/03/09 01:17:12;;;;;;;;;;;;;;;-1.64;71.40;101241.72;5036291;28;905;-83
2022/03/09 01:19:37;;;;;;;;;;;;;;;-1.55;71.10;101248.66;5054714;28;1329;-84
2022/03/09 01:22:03;;;;;;;;;;;;;;;-1.54;70.87;101250.34;5036625;28;1338;-84
2022/03/09 01:24:28;;;;;;;;;;;;;;;-1.55;71.24;101258.56;5057069;28;1885;-82
2022/03/09 01:26:53;;;;;;;;;;;;;;;-1.62;71.64;101258.47;5058104;28;690;-83
2022/03/09 01:29:18;;;;;;;;;;;;;;;-1.54;71.39;101257.56;5076915;28;1486;-84
2022/03/09 01:31:43;;;;;;;;;;;;;;;-1.44;71.40;101258.09;5057898;28;1145;-84
2022/03/09 01:34:08;;;;;;;;;;;;;;;-1.40;71.27;101264.78;5040458;28;1296;-83
2022/03/09 01:36:34;;;;;;;;;;;;;;;-1.49;71.13;101259.69;5040502;28;1301;-84
2022/03/09 01:38:59;;;;;;;;;;;;;;;-1.74;71.15;101254.53;5058093;28;810;-81
2022/03/09 01:41:24;;;;;;;;;;;;;;;-1.72;71.67;101260.56;5049429;28;1342;-83
2022/03/09 01:44:08;;;;;;;;;;;;;;;-1.82;71.62;101253.78;5078260;28;1902;-84
2022/03/09 01:46:33;;;;;;;;;;;;;;;-2.14;72.28;101257.56;5060170;28;1469;-83
2022/03/09 01:48:58;;;;;;;;;;;;;;;-2.11;72.65;101250.00;5077938;28;1055;-83
2022/03/09 01:51:23;;;;;;;;;;;;;;;-1.94;72.44;101253.38;5078476;28;1184;-83
2022/03/09 01:53:49;;;;;;;;;;;;;;;-1.98;72.54;101252.91;5077856;28;1003;-83
2022/03/09 01:56:14;;;;;;;;;;;;;;;-1.96;72.25;101253.53;5043882;28;1324;-82
2022/03/09 01:58:39;;;;;;;;;;;;;;;-2.03;72.68;101249.94;5039923;28;968;-83
2022/03/09 02:01:05;;;;;;;;;;;;;;;-2.11;72.98;101251.84;5064311;28;1303;-84
2022/03/09 02:03:30;;;;;;;;;;;;;;;-1.97;72.88;101253.75;5059751;28;1965;-82
2022/03/09 02:05:55;;;;;;;;;;;;;;;-1.97;72.37;101256.44;5060660;28;1361;-82
2022/03/09 02:11:04;;;;;;;;;;;;;;;-1.79;72.56;101267.69;5069219;28;1533;-82
2022/03/09 02:13:29;;;;;;;;;;;;;;;-1.69;72.57;101272.78;5041276;28;1369;-84
2022/03/09 02:15:54;;;;;;;;;;;;;;;-1.85;72.39;101273.75;5041091;28;782;-83
2022/03/09 02:18:19;;;;;;;;;;;;;;;-1.86;72.89;101277.44;5058918;28;1199;-82
2022/03/09 02:20:46;;;;;;;;;;;;;;;-1.96;72.61;101272.31;5041140;28;1214;-82
2022/03/09 02:23:11;;;;;;;;;;;;;;;-1.95;72.68;101267.78;5058229;28;1933;-84
2022/03/09 02:25:36;;;;;;;;;;;;;;;-1.85;72.58;101267.56;5041227;28;1243;-83
2022/03/09 02:28:01;;;;;;;;;;;;;;;-1.72;72.65;101267.78;5040942;28;1331;-84
2022/03/09 02:30:27;;;;;;;;;;;;;;;-1.87;72.73;101273.09;5059269;28;943;-83
2022/03/09 02:32:52;;;;;;;;;;;;;;;-1.96;72.88;101275.00;5041192;28;1209;-83
2022/03/09 02:35:18;;;;;;;;;;;;;;;-2.16;72.42;101279.19;5041844;28;1385;-83
2022/03/09 02:37:43;;;;;;;;;;;;;;;-2.39;73.07;101273.00;5064013;28;1324;-83
2022/03/09 02:40:10;;;;;;;;;;;;;;;-2.34;73.06;101275.97;5061330;28;1523;-83
2022/03/09 02:42:35;;;;;;;;;;;;;;;-2.31;73.10;101281.81;5062219;28;1332;-83
2022/03/09 02:45:00;;;;;;;;;;;;;;;-2.56;73.16;101277.63;5079927;28;1878;-83
2022/03/09 02:47:25;;;;;;;;;;;;;;;-2.46;73.54;101280.06;5080145;28;991;-83
2022/03/09 02:49:51;;;;;;;;;;;;;;;-2.45;73.38;101279.03;5062169;28;995;-83
2022/03/09 02:52:16;;;;;;;;;;;;;;;-2.41;73.48;101291.94;5080670;28;1193;-83
2022/03/09 02:54:41;;;;;;;;;;;;;;;-2.43;73.56;101282.41;5053264;28;1737;-82
2022/03/09 02:57:06;;;;;;;;;;;;;;;-2.38;73.60;101285.38;5060524;28;1007;-82
2022/03/09 02:59:31;;;;;;;;;;;;;;;-2.50;73.67;101281.44;5059641;28;1347;-82
2022/03/09 03:17:37;;;;;;;;;;;;;;;-2.41;74.38;101277.69;5066027;28;1234;-83
2022/03/09 03:20:03;;;;;;;;;;;;;;;-2.56;74.30;101280.31;5050745;28;1596;-84
2022/03/09 03:22:29;;;;;;;;;;;;;;;-2.60;74.20;101284.34;5055538;28;1307;-84
2022/03/09 03:24:54;;;;;;;;;;;;;;;-2.65;74.18;101280.53;5055486;28;1894;-84
2022/03/09 03:27:19;;;;;;;;;;;;;;;-2.54;74.57;101283.63;5055452;28;834;-84
2022/03/09 03:29:44;;;;;;;;;;;;;;;-2.49;74.34;101283.09;5037810;28;1203;-83
2022/03/09 03:32:10;;;;;;;;;;;;;;;-2.45;74.20;101289.78;5037990;28;1193;-84
2022/03/09 03:34:36;;;;;;;;;;;;;;;-2.41;74.08;101294.63;5067731;28;1408;-82
2022/03/09 03:37:01;;;;;;;;;;;;;;;-2.55;74.01;101295.34;5075421;28;1570;-85
2022/03/09 03:39:26;;;;;;;;;;;;;;;-2.94;74.28;101295.38;5066353;28;1446;-84
2022/03/09 03:41:51;;;;;;;;;;;;;;;-3.14;74.79;101299.44;5037590;28;1392;-85
2022/03/09 03:44:16;;;;;;;;;;;;;;;-3.09;75.19;101297.94;5056039;28;1965;-83
2022/03/09 03:46:42;;;;;;;;;;;;;;;-3.00;75.15;101296.06;5049209;28;1655;-84
2022/03/09 03:49:07;;;;;;;;;;;;;;;-2.93;74.56;101304.25;5057441;28;1514;-83
2022/03/09 03:51:32;;;;;;;;;;;;;;;-2.89;74.78;101310.94;5058076;28;1284;-84
2022/03/09 03:53:58;;;;;;;;;;;;;;;-2.85;74.92;101312.25;5058195;28;1328;-84
2022/03/09 03:56:23;;;;;;;;;;;;;;;-2.79;74.65;101308.88;5073935;28;1644;-85
2022/03/09 03:58:48;;;;;;;;;;;;;;;-2.82;74.63;101317.28;5055446;28;1100;-85
2022/03/09 04:01:13;;;;;;;;;;;;;;;-3.02;74.74;101308.78;5037110;28;1275;-84
2022/03/09 04:03:38;;;;;;;;;;;;;;;-2.95;75.25;101316.97;5058473;28;1959;-85
2022/03/09 04:06:03;;;;;;;;;;;;;;;-3.04;74.93;101313.47;5074268;28;816;-86
2022/03/09 04:08:28;;;;;;;;;;;;;;;-3.17;75.44;101327.41;5037406;28;1766;-85
2022/03/09 04:10:54;;;;;;;;;;;;;;;-3.07;75.36;101317.34;5042552;28;1288;-87
2022/03/09 04:13:19;;;;;;;;;;;;;;;-3.25;75.03;101316.72;5038706;28;1762;-85
2022/03/09 04:15:44;;;;;;;;;;;;;;;-3.18;75.46;101327.59;5045405;28;1642;-87
2022/03/09 04:18:09;;;;;;;;;;;;;;;-3.08;75.20;101322.88;5073874;28;679;-85
2022/03/09 04:20:34;;;;;;;;;;;;;;;-3.03;74.90;101322.34;5073902;28;879;-86
2022/03/09 04:22:59;;;;;;;;;;;;;;;-3.09;75.25;101316.69;5055165;28;1729;-86
2022/03/09 04:25:26;;;;;;;;;;;;;;;-3.05;75.05;101312.63;5055541;28;1973;-86
2022/03/09 04:27:51;;;;;;;;;;;;;;;-3.14;75.17;101318.19;5073649;28;1539;-86
2022/03/09 04:30:16;;;;;;;;;;;;;;;-3.13;75.68;101318.03;5073750;28;805;-86
2022/03/09 04:32:41;;;;;;;;;;;;;;;-3.11;75.38;101320.53;5055362;28;1487;-86
2022/03/09 04:35:07;;;;;;;;;;;;;;;-3.07;75.56;101303.97;5055677;28;1286;-87
2022/03/09 04:37:33;;;;;;;;;;;;;;;-3.21;75.29;101301.13;5046632;28;1540;-87
2022/03/09 04:39:58;;;;;;;;;;;;;;;-3.31;75.45;101305.84;5055607;28;1277;-87
2022/03/09 04:42:24;;;;;;;;;;;;;;;-3.32;75.63;101304.19;5055434;28;1280;-85
2022/03/09 04:44:49;;;;;;;;;;;;;;;-3.34;76.05;101311.56;5072978;28;1889;-87
2022/03/09 04:47:14;;;;;;;;;;;;;;;-3.26;75.93;101307.03;5073711;28;1368;-86
2022/03/09 04:49:39;;;;;;;;;;;;;;;-3.26;75.80;101306.19;5055547;28;1335;-86
2022/03/09 04:52:05;;;;;;;;;;;;;;;-3.41;75.84;101308.72;5055820;28;1239;-84
2022/03/09 04:54:30;;;;;;;;;;;;;;;-3.41;75.86;101315.94;5074868;28;861;-86
2022/03/09 04:56:55;;;;;;;;;;;;;;;-3.42;75.91;101311.56;5056056;28;1167;-87
2022/03/09 04:59:21;;;;;;;;;;;;;;;-3.34;75.81;101315.06;5036374;28;1252;-87
2022/03/09 05:01:46;;;;;;;;;;;;;;;-3.27;76.12;101318.72;5063569;28;1376;-87
2022/03/09 05:04:11;;;;;;;;;;;;;;;-3.36;75.84;101319.75;5059710;28;1890;-86
2022/03/09 05:06:36;;;;;;;;;;;;;;;-3.32;76.03;101321.09;5078295;28;991;-85
2022/03/09 05:09:01;;;;;;;;;;;;;;;-3.29;75.80;101327.94;5056539;28;1306;-86
2022/03/09 05:11:26;;;;;;;;;;;;;;;-3.34;75.57;101332.97;5056347;28;1292;-86
2022/03/09 05:13:51;;;;;;;;;;;;;;;-3.29;76.05;101326.09;5050909;28;1223;-86
2022/03/09 05:16:17;;;;;;;;;;;;;;;-3.34;75.50;101323.09;5059330;28;1630;-86
2022/03/09 05:18:42;;;;;;;;;;;;;;;-3.47;75.97;101334.31;5068444;28;1199;-87
2022/03/09 05:21:08;;;;;;;;;;;;;;;-3.39;76.05;101336.13;5050191;28;1345;-83
2022/03/09 05:23:33;;;;;;;;;;;;;;;-3.32;76.07;101337.16;5059814;28;1932;-82
2022/03/09 05:25:58;;;;;;;;;;;;;;;-3.32;75.98;101336.31;5065175;28;1146;-85
2022/03/09 05:28:24;;;;;;;;;;;;;;;-3.40;76.11;101339.81;5081538;28;947;-82
2022/03/09 05:30:49;;;;;;;;;;;;;;;-3.40;76.17;101322.94;5079307;28;1737;-85
2022/03/09 05:33:14;;;;;;;;;;;;;;;-3.40;76.10;101337.13;5049878;28;1495;-86
2022/03/09 05:35:39;;;;;;;;;;;;;;;-3.39;76.06;101332.63;5057498;28;1388;-87
2022/03/09 05:38:04;;;;;;;;;;;;;;;-3.51;75.85;101338.34;5060911;28;1216;-86
2022/03/09 05:40:30;;;;;;;;;;;;;;;-3.57;75.99;101343.50;5078410;28;1133;-85
2022/03/09 05:42:55;;;;;;;;;;;;;;;-3.57;76.00;101346.19;5051033;28;1670;-86
2022/03/09 05:45:20;;;;;;;;;;;;;;;-3.60;76.10;101349.22;5060197;28;1941;-87
2022/03/09 05:47:45;;;;;;;;;;;;;;;-3.56;76.43;101355.88;5049464;28;1526;-87
2022/03/09 05:50:10;;;;;;;;;;;;;;;-3.77;75.99;101353.72;5057645;28;1619;-88
2022/03/09 05:52:36;;;;;;;;;;;;;;;-3.84;76.40;101353.56;5057079;28;1437;-88
2022/03/09 05:55:01;;;;;;;;;;;;;;;-3.71;76.22;101345.03;5049761;28;1269;-87
2022/03/09 05:57:26;;;;;;;;;;;;;;;-3.68;76.45;101359.91;5052337;28;1933;-86
2022/03/09 05:59:51;;;;;;;;;;;;;;;-3.68;76.39;101367.94;5059733;28;1214;-87
2022/03/09 06:02:16;;;;;;;;;;;;;;;-3.70;76.28;101362.75;5073491;28;1343;-87
2022/03/09 06:04:45;;;;;;;;;;;;;;;-3.62;76.73;101365.44;5056046;28;1890;-86
2022/03/09 06:07:10;;;;;;;;;;;;;;;-3.64;76.10;101356.72;5049594;28;1281;-88
2022/03/09 06:09:35;;;;;;;;;;;;;;;-3.85;76.41;101335.84;5050881;28;1317;-87
2022/03/09 06:12:00;;;;;;;;;;;;;;;-3.65;76.45;101352.38;5053490;28;1334;-88
2022/03/09 06:14:26;;;;;;;;;;;;;;;-3.85;76.10;101367.94;5060851;28;1507;-87
2022/03/09 06:16:51;;;;;;;;;;;;;;;-3.93;76.60;101359.06;5053335;28;1674;-88
2022/03/09 06:19:16;;;;;;;;;;;;;;;-3.74;76.84;101357.91;5059361;28;1372;-88
2022/03/09 06:21:42;;;;;;;;;;;;;;;-3.59;76.39;101356.25;5058971;28;1331;-87
2022/03/09 06:24:08;;;;;;;;;;;;;;;-3.74;75.96;101360.59;5058695;28;1971;-89
2022/03/09 06:26:33;;;;;;;;;;;;;;;-3.72;76.35;101362.06;5076631;28;836;-87
2022/03/09 06:28:58;;;;;;;;;;;;;;;-3.48;76.60;101359.41;5058502;28;995;-88
2022/03/09 06:31:23;;;;;;;;;;;;;;;-3.38;76.66;101363.75;5058579;28;1274;-87
2022/03/09 06:33:48;;;;;;;;;;;;;;;-3.32;76.05;101357.72;5076210;28;888;-87
2022/03/09 06:36:15;;;;;;;;;;;;;;;-3.26;76.30;101357.88;5058608;28;1114;-88
2022/03/09 06:38:40;;;;;;;;;;;;;;;-3.25;75.98;101356.88;5076549;28;1074;-87
2022/03/09 06:41:05;;;;;;;;;;;;;;;-3.50;75.98;101358.75;5057949;28;1174;-84
2022/03/09 06:43:30;;;;;;;;;;;;;;;-3.44;76.30;101360.75;5057595;28;1894;-86
2022/03/09 06:45:55;;;;;;;;;;;;;;;-3.38;76.39;101359.22;5075757;28;995;-86
2022/03/09 06:48:20;;;;;;;;;;;;;;;-3.20;76.33;101359.88;5058007;28;961;-83
2022/03/09 06:50:45;;;;;;;;;;;;;;;-3.05;76.12;101362.69;5057854;28;1180;-87
2022/03/09 06:53:11;;;;;;;;;;;;;;;-3.04;75.88;101353.66;5075292;28;1042;-86
2022/03/09 06:55:36;;;;;;;;;;;;;;;-3.02;76.03;101357.00;5057494;28;1175;-87
2022/03/09 06:58:01;;;;;;;;;;;;;;;-3.07;76.29;101354.00;5057724;28;1330;-86
2022/03/09 07:00:26;;;;;;;;;;;;;;;-2.99;76.18;101351.31;5057448;28;1204;-86
2022/03/09 07:02:51;;;;;;;;;;;;;;;-2.91;76.12;101355.81;5075465;28;1293;-85
2022/03/09 07:05:17;;;;;;;;;;;;;;;-2.97;76.21;101354.63;5057021;28;1886;-87
2022/03/09 07:07:42;;;;;;;;;;;;;;;-2.96;76.28;101352.78;5057867;28;1334;-88
2022/03/09 07:10:11;;;;;;;;;;;;;;;-2.85;76.34;101355.94;5057795;28;1277;-87
2022/03/09 07:12:37;;;;;;;;;;;;;;;-2.78;76.26;101359.59;5075734;28;1244;-88
2022/03/09 07:15:02;;;;;;;;;;;;;;;-2.78;76.17;101359.59;5075397;28;912;-88
2022/03/09 07:17:27;;;;;;;;;;;;;;;-2.74;76.84;101355.59;5057727;28;1187;-86
2022/03/09 07:19:52;;;;;;;;;;;;;;;-2.60;76.56;101358.53;5057419;28;1419;-89
2022/03/09 07:22:17;;;;;;;;;;;;;;;-2.50;76.74;101351.97;5057084;28;1346;-84
2022/03/09 07:24:43;;;;;;;;;;;;;;;-2.36;76.61;101353.06;5056180;28;1879;-88
2022/03/09 07:27:08;;;;;;;;;;;;;;;-2.23;76.14;101350.66;5075637;28;800;-85
2022/03/09 07:29:33;;;;;;;;;;;;;;;-2.13;76.27;101351.28;5074630;28;1033;-85
2022/03/09 07:31:58;;;;;;;;;;;;;;;-2.07;76.44;101347.03;5056691;28;1273;-86
2022/03/09 07:34:24;;;;;;;;;;;;;;;-2.19;76.43;101308.22;5056828;28;1331;-89
2022/03/09 07:36:49;;;;;;;;;;;;;;;-1.92;76.43;101348.78;5057282;28;1366;-85
2022/03/09 07:39:15;;;;;;;;;;;;;;;-1.89;76.18;101350.28;5056587;28;1219;-87
2022/03/09 07:41:41;;;;;;;;;;;;;;;-1.84;76.54;101341.66;5056415;28;1303;-86
2022/03/09 07:44:06;;;;;;;;;;;;;;;-1.73;76.49;101350.16;5056373;28;1893;-86
2022/03/09 07:46:31;;;;;;;;;;;;;;;-1.66;76.31;101361.84;5056726;28;916;-88
2022/03/09 07:48:56;;;;;;;;;;;;;;;-1.58;76.28;101366.28;5074438;28;983;-85
2022/03/09 07:51:21;;;;;;;;;;;;;;;-1.50;75.90;101363.53;5056331;28;1290;-87
2022/03/09 07:53:46;;;;;;;;;;;;;;;-1.43;75.78;101369.00;5056357;28;1156;-87
2022/03/09 07:56:12;;;;;;;;;;;;;;;-1.39;75.46;101365.81;5056456;28;980;-85
2022/03/09 07:58:37;;;;;;;;;;;;;;;-1.36;75.42;101370.78;5056584;28;1315;-86
2022/03/09 08:01:03;;;;;;;;;;;;;;;-1.32;75.39;101372.13;5056519;28;1276;-87
2022/03/09 08:03:28;;;;;;;;;;;;;;;-1.25;75.31;101372.22;5056207;28;1955;-87
2022/03/09 08:05:53;;;;;;;;;;;;;;;-1.23;75.63;101373.72;5056352;28;951;-87
2022/03/09 08:08:18;;;;;;;;;;;;;;;-1.17;75.23;101386.41;5056433;28;990;-87
2022/03/09 08:10:43;;;;;;;;;;;;;;;-1.10;75.17;101382.97;5056293;28;1324;-85
2022/03/09 08:13:08;;;;;;;;;;;;;;;-1.09;75.40;101385.50;5056202;28;1256;-84
2022/03/09 08:15:35;;;;;;;;;;;;;;;-1.05;75.39;101394.03;5074136;28;853;-84
2022/03/09 08:18:00;;;;;;;;;;;;;;;-1.05;75.41;101392.19;5056199;28;1374;-85
2022/03/09 08:20:25;;;;;;;;;;;;;;;-1.00;75.33;101388.94;5055955;28;1012;-84
2022/03/09 08:22:50;;;;;;;;;;;;;;;-0.96;75.42;101392.94;5074030;28;1275;-85
2022/03/09 08:25:15;;;;;;;;;;;;;;;-0.94;75.70;101389.06;5056013;28;1889;-87
2022/03/09 08:27:41;;;;;;;;;;;;;;;-0.90;75.39;101392.19;5055908;28;945;-88
2022/03/09 08:30:06;;;;;;;;;;;;;;;-0.90;75.54;101393.03;5056035;28;1251;-88
2022/03/09 08:32:31;;;;;;;;;;;;;;;-0.86;75.56;101383.59;5073452;28;1208;-87
2022/03/09 08:34:56;;;;;;;;;;;;;;;-0.83;75.74;101387.75;5073677;28;789;-88
2022/03/09 08:37:22;;;;;;;;;;;;;;;-0.80;75.82;101387.38;5056115;28;1165;-86
2022/03/09 08:39:48;;;;;;;;;;;;;;;-0.72;75.67;101384.59;5073827;28;892;-87
2022/03/09 08:42:13;;;;;;;;;;;;;;;-0.67;75.56;101392.94;5055839;28;1253;-88
2022/03/09 08:44:38;;;;;;;;;;;;;;;-0.65;75.38;101395.44;5055758;28;1953;-86
2022/03/09 08:47:04;;;;;;;;;;;;;;;-0.64;75.50;101387.19;5056029;28;1212;-85
2022/03/09 08:49:30;;;;;;;;;;;;;;;-0.57;75.48;101390.81;5073539;28;959;-86
2022/03/09 08:51:56;;;;;;;;;;;;;;;-0.49;75.31;101385.34;5055351;28;1370;-86
2022/03/09 08:54:21;;;;;;;;;;;;;;;-0.35;75.24;101389.06;5055194;28;1331;-87
2022/03/09 08:56:47;;;;;;;;;;;;;;;-0.28;75.06;101387.28;5055418;28;1358;-86
2022/03/09 08:59:12;;;;;;;;;;;;;;;-0.22;75.12;101383.81;5055446;28;1351;-88
2022/03/09 09:01:37;;;;;;;;;;;;;;;-0.14;75.04;101382.88;5055599;28;1227;-88
2022/03/09 09:04:02;;;;;;;;;;;;;;;-0.08;74.80;101392.88;5072019;28;1898;-87
2022/03/09 09:06:29;;;;;;;;;;;;;;;-0.03;74.56;101380.53;5073590;28;1219;-87
2022/03/09 09:08:54;;;;;;;;;;;;;;;0.05;74.37;101384.97;5055788;28;1318;-86
2022/03/09 09:11:19;;;;;;;;;;;;;;;0.17;74.16;101386.13;5073980;28;1216;-88
2022/03/09 09:13:44;;;;;;;;;;;;;;;0.27;73.91;101385.81;5073781;28;687;-85
2022/03/09 09:16:09;;;;;;;;;;;;;;;0.30;73.78;101380.88;5055718;28;833;-86
2022/03/09 09:18:34;;;;;;;;;;;;;;;0.40;73.68;101380.56;5073791;28;797;-87
2022/03/09 09:21:00;;;;;;;;;;;;;;;0.47;73.46;101388.72;5089939;28;1281;-88
2022/03/09 09:23:25;;;;;;;;;;;;;;;0.52;73.65;101375.47;5076175;28;1898;-88
2022/03/09 09:25:50;;;;;;;;;;;;;;;0.54;73.52;101379.66;5052813;28;1287;-88
2022/03/09 09:28:16;;;;;;;;;;;;;;;0.61;73.31;101368.94;5053010;28;1042;-87
2022/03/09 09:30:42;;;;;;;;;;;;;;;0.71;73.16;101372.13;5052685;28;1263;-86
2022/03/09 09:33:07;;;;;;;;;;;;;;;0.79;73.11;101377.38;5051855;28;1000;-86
2022/03/09 09:35:32;;;;;;;;;;;;;;;0.84;72.77;101368.72;5052614;28;929;-87
2022/03/09 09:38:06;;;;;;;;;;;;;;;0.87;72.62;101366.47;5053350;28;1310;-85
2022/03/09 09:40:31;;;;;;;;;;;;;;;0.93;72.51;101365.69;5053495;28;935;-87
2022/03/09 09:42:56;;;;;;;;;;;;;;;1.02;72.61;101366.38;5052626;28;1242;-87
2022/03/09 09:45:21;;;;;;;;;;;;;;;1.12;72.33;101364.97;5051917;28;1893;-87
2022/03/09 09:47:47;;;;;;;;;;;;;;;1.23;72.18;101365.47;5053458;28;937;-87
2022/03/09 09:50:14;;;;;;;;;;;;;;;1.31;71.78;101368.00;5055608;28;1407;-87
2022/03/09 09:52:40;;;;;;;;;;;;;;;1.36;71.35;101368.25;5056261;28;1247;-87
2022/03/09 09:55:07;;;;;;;;;;;;;;;1.55;71.15;101353.19;5056294;28;1184;-85
2022/03/09 09:57:32;;;;;;;;;;;;;;;1.53;71.05;101354.22;5055835;28;1347;-87
2022/03/09 09:59:58;;;;;;;;;;;;;;;1.63;71.01;101355.72;5055388;28;1217;-87
2022/03/09 10:02:23;;;;;;;;;;;;;;;1.87;70.49;101352.50;5055702;28;1240;-87
2022/03/09 10:04:50;;;;;;;;;;;;;;;1.90;69.34;101341.28;5056727;28;1902;-87
2022/03/09 10:07:15;;;;;;;;;;;;;;;2.00;69.41;101349.84;5056698;28;896;-87
2022/03/09 10:09:41;;;;;;;;;;;;;;;2.08;68.75;101338.00;5055475;28;1191;-87
2022/03/09 10:12:07;;;;;;;;;;;;;;;2.13;68.51;101346.31;5056319;28;1298;-87
2022/03/09 10:14:43;;;;;;;;;;;;;;;2.36;68.28;101349.50;5056394;28;1004;-87
2022/03/09 10:17:18;;;;;;;;;;;;;;;2.48;66.59;101350.53;5056905;28;876;-85
2022/03/09 10:19:45;;;;;;;;;;;;;;;2.45;65.92;101342.03;5055542;28;1399;-87
2022/03/09 10:22:23;;;;;;;;;;;;;;;2.61;65.06;101339.75;5057457;28;1294;-86
2022/03/09 10:24:49;;;;;;;;;;;;;;;2.67;64.32;101347.00;5056283;28;1890;-86
2022/03/09 10:27:34;;;;;;;;;;;;;;;2.67;64.51;101349.72;5067972;28;1114;-86
2022/03/09 10:30:00;;;;;;;;;;;;;;;2.86;63.80;101356.16;5074786;28;1320;-86
2022/03/09 10:32:41;;;;;;;;;;;;;;;3.05;62.88;101349.09;5076027;28;1287;-86
2022/03/09 10:35:06;;;;;;;;;;;;;;;2.95;62.19;101351.38;5074945;28;1197;-86
2022/03/09 10:37:37;;;;;;;;;;;;;;;3.13;62.09;101351.56;5074648;28;1226;-86
2022/03/09 10:40:09;;;;;;;;;;;;;;;3.18;61.35;101350.91;5074517;28;1356;-86
2022/03/09 10:42:35;;;;;;;;;;;;;;;3.24;60.49;101345.47;5075483;28;1189;-86
2022/03/09 10:45:03;;;;;;;;;;;;;;;3.43;60.03;101344.59;5075087;28;1894;-86
2022/03/09 10:47:30;;;;;;;;;;;;;;;3.34;59.94;101340.47;5073969;28;1379;-86
2022/03/09 10:50:13;;;;;;;;;;;;;;;3.37;59.15;101345.47;5074067;28;1186;-85
2022/03/09 10:52:43;;;;;;;;;;;;;;;3.44;58.85;101329.19;5073835;28;1301;-86
2022/03/09 10:55:23;;;;;;;;;;;;;;;3.51;58.27;101329.16;5073743;28;1295;-86
2022/03/09 10:57:49;;;;;;;;;;;;;;;3.51;57.49;101326.47;5073976;28;1329;-86
2022/03/09 11:00:14;;;;;;;;;;;;;;;3.50;57.27;101328.34;5072527;28;1318;-85
2022/03/09 11:02:52;;;;;;;;;;;;;;;3.49;57.34;101325.88;5073517;28;1419;-86
2022/03/09 11:05:22;;;;;;;;;;;;;;;3.89;56.97;101326.53;5073488;28;1902;-86
2022/03/09 11:07:47;;;;;;;;;;;;;;;3.96;56.41;101317.31;5073862;28;1258;-85
2022/03/09 11:10:13;;;;;;;;;;;;;;;3.84;56.48;101316.31;5073582;28;1188;-86
2022/03/09 11:12:39;;;;;;;;;;;;;;;3.88;56.38;101314.84;5074713;28;1169;-85
2022/03/09 11:15:05;;;;;;;;;;;;;;;4.12;56.24;101311.38;5075002;28;781;-88
2022/03/09 11:17:30;;;;;;;;;;;;;;;4.11;55.75;101306.16;5058836;28;1324;-86
2022/03/09 11:19:55;;;;;;;;;;;;;;;4.04;55.44;101306.22;5074946;28;706;-86
2022/03/09 11:22:20;;;;;;;;;;;;;;;4.05;55.18;101301.63;5056396;28;1236;-86
2022/03/09 11:24:46;;;;;;;;;;;;;;;4.19;54.96;101303.19;5075890;28;1898;-86
2022/03/09 11:27:11;;;;;;;;;;;;;;;4.30;54.71;101307.91;5078361;28;884;-87
2022/03/09 11:29:37;;;;;;;;;;;;;;;4.28;54.14;101298.34;5078216;28;991;-88
2022/03/09 11:32:06;;;;;;;;;;;;;;;4.35;54.05;101293.69;5076108;28;1297;-88
2022/03/09 11:34:34;;;;;;;;;;;;;;;4.38;53.53;101294.09;5058563;28;1207;-88
2022/03/09 11:37:06;;;;;;;;;;;;;;;4.25;53.82;101294.22;5058615;28;1223;-87
2022/03/09 11:39:32;;;;;;;;;;;;;;;4.27;53.77;101294.78;5075999;28;865;-87
2022/03/09 11:42:16;;;;;;;;;;;;;;;4.31;53.79;101295.19;5058539;28;1270;-89
2022/03/09 11:44:41;;;;;;;;;;;;;;;4.50;53.49;101289.63;5058058;28;2030;-88
2022/03/09 11:47:07;;;;;;;;;;;;;;;4.64;53.10;101287.63;5077058;28;888;-87
2022/03/09 11:49:41;;;;;;;;;;;;;;;4.74;53.04;101287.97;5081620;28;868;-86
2022/03/09 11:52:09;;;;;;;;;;;;;;;4.66;52.57;101287.41;5062629;28;1295;-86
2022/03/09 11:54:48;;;;;;;;;;;;;;;4.72;52.97;101284.63;5062222;28;1296;-87
2022/03/09 11:57:14;;;;;;;;;;;;;;;4.80;53.18;101281.63;5061567;28;1219;-87
2022/03/09 11:59:59;;;;;;;;;;;;;;;4.93;52.85;101277.97;5062789;28;1159;-86
2022/03/09 12:02:36;;;;;;;;;;;;;;;5.21;52.52;101277.44;5079671;28;1292;-86
2022/03/09 12:05:03;;;;;;;;;;;;;;;5.37;52.34;101279.53;5056949;28;1966;-86
2022/03/09 12:07:28;;;;;;;;;;;;;;;5.75;50.92;101268.41;5060036;28;1235;-86
2022/03/09 12:10:01;;;;;;;;;;;;;;;5.62;50.21;101274.84;5059107;28;1273;-87
2022/03/09 12:12:27;;;;;;;;;;;;;;;5.41;50.21;101267.19;5057227;28;1234;-86
2022/03/09 12:15:05;;;;;;;;;;;;;;;5.63;50.58;101270.25;5061423;28;1356;-86
2022/03/09 12:17:36;;;;;;;;;;;;;;;5.77;50.42;101262.75;5061847;28;1357;-87
2022/03/09 12:20:14;;;;;;;;;;;;;;;5.93;49.47;101267.56;5064189;28;1220;-86
2022/03/09 12:22:55;;;;;;;;;;;;;;;5.85;49.53;101257.00;5093572;28;1353;-88
2022/03/09 12:25:39;;;;;;;;;;;;;;;5.70;50.12;101255.50;5071613;28;1870;-87
2022/03/09 12:28:23;;;;;;;;;;;;;;;5.80;49.70;101251.41;5071008;28;1272;-86
2022/03/09 12:30:51;;;;;;;;;;;;;;;6.05;49.38;101254.84;5057182;28;1374;-86
2022/03/09 12:33:21;;;;;;;;;;;;;;;6.07;49.06;101253.56;5055339;28;1215;-86
2022/03/09 12:35:46;;;;;;;;;;;;;;;5.97;48.58;101242.41;5055217;28;1390;-86
2022/03/09 12:38:12;;;;;;;;;;;;;;;6.01;49.04;101242.78;5054747;28;1200;-87
2022/03/09 12:40:37;;;;;;;;;;;;;;;6.14;48.09;101237.13;5053617;28;1220;-86
2022/03/09 12:43:02;;;;;;;;;;;;;;;6.16;48.78;101236.91;5053792;28;1256;-86
2022/03/09 12:45:27;;;;;;;;;;;;;;;6.33;48.08;101244.16;5054740;28;1953;-86
2022/03/09 12:47:54;;;;;;;;;;;;;;;6.34;47.87;101237.66;5052591;28;777;-86
2022/03/09 12:50:22;;;;;;;;;;;;;;;6.25;48.38;101233.63;5053032;28;1216;-88
2022/03/09 12:52:48;;;;;;;;;;;;;;;6.28;48.24;101235.88;5055972;28;1181;-86
2022/03/09 12:55:16;;;;;;;;;;;;;;;6.23;47.98;101232.19;5053751;28;1182;-86
2022/03/09 12:57:41;;;;;;;;;;;;;;;6.60;47.76;101230.09;5054189;28;1193;-86
2022/03/09 13:00:08;;;;;;;;;;;;;;;6.70;46.68;101227.63;5053066;28;943;-86
2022/03/09 13:02:41;;;;;;;;;;;;;;;6.67;47.29;101236.25;5054629;28;1307;-86
2022/03/09 13:05:07;;;;;;;;;;;;;;;6.69;46.37;101236.84;5056166;28;1897;-86